Terminal Aerodrome Forecast
Issued by NWS Cleveland, OH

Home | Current Version | Previous Version | Text Only | Print | Product List | Glossary Off
Versions: 1 2 3 4 5 6 7 8 9 10 11 12 13 14 15 16 17 18 19

795
FTUS41 KCLE 240524
TAFTOL
TAF
KTOL 240524Z 2406/2506 12006KT P6SM VCSH OVC050
     FM241000 08007KT P6SM VCSH OVC030
     FM241400 09008KT P6SM VCSH SCT007 OVC015
      TEMPO 2421/2423 BKN007 OVC015
     FM242300 06007KT 6SM BR VCSH OVC007
     FM250300 05007KT 3SM BR OVC003=

USA.gov is the U.S. government's official web portal to all federal, state and local government web resources and services.